createdAt,value
2017-06-12T00:00:41.611Z,4.17
2017-06-12T00:03:09.269Z,3.50
2017-06-12T00:05:36.894Z,3.57
2017-06-12T00:08:04.572Z,3.50
2017-06-12T00:10:32.188Z,3.47
2017-06-12T00:12:59.808Z,3.17
2017-06-12T00:15:27.467Z,3.70
2017-06-12T00:17:55.081Z,4.20
2017-06-12T00:20:22.764Z,5.17
2017-06-12T00:22:50.388Z,4.10
2017-06-12T00:25:18.037Z,4.30
2017-06-12T00:27:45.697Z,3.67
2017-06-12T00:30:13.304Z,3.67
2017-06-12T00:32:40.967Z,5.67
2017-06-12T00:35:08.584Z,3.40
2017-06-12T00:37:36.200Z,6.23
2017-06-12T00:40:03.852Z,3.90
2017-06-12T00:42:31.476Z,4.10
2017-06-12T00:44:59.926Z,3.70
2017-06-12T00:47:27.539Z,3.40
2017-06-12T00:49:55.148Z,3.37
2017-06-12T00:52:22.802Z,5.23
2017-06-12T00:54:50.428Z,3.40
2017-06-12T00:57:18.101Z,3.60
2017-06-12T00:59:45.713Z,3.40
2017-06-12T01:02:13.347Z,3.70
2017-06-12T01:04:41.004Z,3.73
2017-06-12T01:07:08.624Z,3.47
2017-06-12T01:09:36.327Z,3.03
2017-06-12T01:12:03.933Z,3.43
2017-06-12T01:14:32.311Z,3.70
2017-06-12T01:16:59.955Z,3.40
2017-06-12T01:19:28.388Z,3.77
2017-06-12T01:22:08.036Z,4.13
2017-06-12T01:24:35.647Z,4.67
2017-06-12T01:27:03.276Z,4.07
2017-06-12T01:29:30.932Z,3.50
2017-06-12T01:31:58.576Z,3.87
2017-06-12T01:34:26.238Z,4.30
2017-06-12T01:36:53.853Z,3.63
2017-06-12T01:39:21.463Z,4.33
2017-06-12T01:41:49.109Z,4.30
2017-06-12T01:44:16.725Z,4.63
2017-06-12T01:46:44.403Z,3.83
2017-06-12T01:49:12.787Z,4.80
2017-06-12T01:51:40.405Z,3.87
2017-06-12T01:54:08.054Z,3.90
2017-06-12T01:56:35.683Z,3.63
2017-06-12T01:59:03.342Z,3.60
2017-06-12T02:01:30.968Z,3.60
2017-06-12T02:03:58.608Z,3.70
2017-06-12T02:06:26.256Z,3.93
2017-06-12T02:08:53.873Z,4.17
2017-06-12T02:11:21.560Z,4.20
2017-06-12T02:13:49.184Z,3.70
2017-06-12T02:16:16.802Z,3.63
2017-06-12T02:18:44.501Z,4.10
2017-06-12T02:21:12.111Z,4.00
2017-06-12T02:23:39.777Z,3.57
2017-06-12T02:26:07.391Z,3.30
2017-06-12T02:28:35.006Z,3.53
2017-06-12T02:31:02.650Z,3.13
2017-06-12T02:33:31.032Z,3.80
2017-06-12T02:35:58.694Z,3.47
2017-06-12T02:38:26.312Z,4.47
2017-06-12T02:40:53.941Z,3.20
2017-06-12T02:43:21.597Z,4.77
2017-06-12T02:45:49.213Z,3.53
2017-06-12T02:48:16.889Z,4.43
2017-06-12T02:50:44.526Z,3.43
2017-06-12T02:53:12.137Z,5.10
2017-06-12T02:55:39.802Z,3.13
2017-06-12T02:58:07.412Z,3.50
2017-06-12T03:00:35.078Z,3.00
2017-06-12T03:03:02.685Z,5.47
2017-06-12T03:05:30.296Z,3.00
2017-06-12T03:07:57.940Z,3.50
2017-06-12T03:10:33.448Z,3.27
2017-06-12T03:13:01.109Z,3.77
2017-06-12T03:15:28.728Z,3.50
2017-06-12T03:17:56.383Z,3.47
2017-06-12T03:20:24.038Z,3.60
2017-06-12T03:22:51.652Z,4.00
2017-06-12T03:25:19.463Z,3.40
2017-06-12T03:27:47.086Z,3.50
2017-06-12T03:30:14.692Z,3.50
2017-06-12T03:32:42.341Z,3.70
2017-06-12T03:35:09.971Z,3.30
2017-06-12T03:37:37.621Z,3.10
2017-06-12T03:40:05.264Z,3.80
2017-06-12T03:42:32.884Z,2.47
2017-06-12T03:45:00.542Z,3.73
2017-06-12T03:47:28.148Z,3.63
2017-06-12T03:49:55.807Z,3.17
2017-06-12T03:52:23.428Z,3.57
2017-06-12T03:54:51.044Z,3.00
2017-06-12T03:57:18.765Z,3.90
2017-06-12T03:59:46.387Z,2.80
2017-06-12T04:02:24.999Z,3.83
2017-06-12T04:04:52.617Z,3.03
2017-06-12T04:07:20.229Z,3.00
2017-06-12T04:09:47.869Z,3.23
2017-06-12T04:12:15.480Z,2.73
2017-06-12T04:14:43.148Z,5.03
2017-06-12T04:17:10.764Z,2.70
2017-06-12T04:19:38.376Z,4.50
2017-06-12T04:22:06.031Z,3.30
2017-06-12T04:24:33.684Z,2.50
2017-06-12T04:27:01.386Z,2.10
2017-06-12T04:29:29.006Z,2.53
2017-06-12T04:31:56.732Z,2.43
2017-06-12T04:34:24.372Z,2.40
2017-06-12T04:36:51.996Z,3.03
2017-06-12T04:39:19.675Z,3.07
2017-06-12T04:41:47.293Z,3.00
2017-06-12T04:44:14.920Z,2.77
2017-06-12T04:46:42.560Z,2.10
2017-06-12T04:49:10.181Z,2.30
2017-06-12T04:51:37.856Z,2.00
2017-06-12T04:54:05.468Z,2.43
2017-06-12T04:56:33.088Z,3.33
2017-06-12T04:59:00.721Z,2.60
2017-06-12T05:01:28.351Z,2.40
2017-06-12T05:03:56.770Z,3.20
2017-06-12T05:06:25.041Z,2.57
2017-06-12T05:08:52.648Z,2.50
2017-06-12T05:11:21.745Z,3.80
2017-06-12T05:13:49.449Z,3.17
2017-06-12T05:16:17.116Z,4.63
2017-06-12T05:18:44.742Z,2.70
2017-06-12T05:21:13.125Z,2.60
2017-06-12T05:23:40.763Z,2.83
2017-06-12T05:26:08.373Z,2.90
2017-06-12T05:28:36.032Z,2.70
2017-06-12T05:31:03.651Z,2.43
2017-06-12T05:33:31.256Z,4.80
2017-06-12T05:35:58.944Z,4.53
2017-06-12T05:38:26.566Z,3.60
2017-06-12T05:40:54.232Z,4.57
2017-06-12T05:43:21.856Z,4.77
2017-06-12T05:45:49.473Z,3.17
2017-06-12T05:48:17.120Z,3.07
2017-06-12T05:50:44.729Z,4.07
2017-06-12T05:53:12.412Z,3.63
2017-06-12T05:55:40.791Z,3.00
2017-06-12T05:58:08.404Z,3.07
2017-06-12T06:00:36.041Z,2.93
2017-06-12T06:03:03.666Z,3.33
2017-06-12T06:05:31.337Z,2.90
2017-06-12T06:07:58.956Z,2.77
2017-06-12T06:10:26.581Z,2.93
2017-06-12T06:12:54.228Z,2.63
2017-06-12T06:15:21.841Z,3.90
2017-06-12T06:17:49.512Z,2.57
2017-06-12T06:20:17.225Z,3.03
2017-06-12T06:22:44.861Z,3.87
2017-06-12T06:25:12.500Z,3.30
2017-06-12T06:27:40.108Z,3.13
2017-06-12T06:30:07.766Z,3.30
2017-06-12T06:32:35.391Z,2.87
2017-06-12T06:35:03.015Z,4.57
2017-06-12T06:37:31.443Z,3.87
2017-06-12T06:39:59.062Z,3.20
2017-06-12T06:42:26.720Z,3.23
2017-06-12T06:44:54.392Z,2.80
2017-06-12T06:47:22.003Z,3.60
2017-06-12T06:49:49.647Z,3.07
2017-06-12T06:52:17.254Z,3.90
2017-06-12T06:54:44.920Z,3.60
2017-06-12T06:57:12.538Z,3.53
2017-06-12T06:59:40.148Z,3.50
2017-06-12T07:02:07.797Z,7.30
2017-06-12T07:04:35.422Z,3.67
2017-06-12T07:07:03.081Z,3.77
2017-06-12T07:09:30.737Z,3.77
2017-06-12T07:11:58.356Z,4.30
2017-06-12T07:14:26.001Z,3.97
2017-06-12T07:16:53.617Z,4.50
2017-06-12T07:19:21.273Z,4.27
2017-06-12T07:21:48.912Z,4.23
2017-06-12T07:24:16.560Z,4.20
2017-06-12T07:26:44.294Z,5.67
2017-06-12T07:29:11.925Z,3.93
2017-06-12T07:31:39.597Z,6.83
2017-06-12T07:34:07.205Z,5.27
2017-06-12T07:36:34.818Z,5.17
2017-06-12T07:39:02.465Z,4.77
2017-06-12T07:41:30.081Z,4.80
2017-06-12T07:43:58.523Z,4.83
2017-06-12T07:46:26.141Z,5.13
2017-06-12T07:48:53.755Z,4.70
2017-06-12T07:51:21.401Z,5.40
2017-06-12T07:53:49.012Z,5.73
2017-06-12T07:56:16.672Z,7.70
2017-06-12T07:58:44.289Z,5.40
2017-06-12T08:01:11.900Z,6.30
2017-06-12T08:03:39.544Z,6.33
2017-06-12T08:06:07.157Z,5.30
2017-06-12T08:08:34.846Z,6.53
2017-06-12T08:11:02.462Z,6.60
2017-06-12T08:13:30.077Z,7.60
2017-06-12T08:15:57.717Z,6.87
2017-06-12T08:18:25.325Z,7.80
2017-06-12T08:20:52.992Z,7.57
2017-06-12T08:23:20.602Z,7.53
2017-06-12T08:25:48.233Z,7.03
2017-06-12T08:28:16.641Z,7.00
2017-06-12T08:30:44.288Z,6.37
2017-06-12T08:33:11.952Z,6.30
2017-06-12T08:35:39.573Z,7.20
2017-06-12T08:38:07.194Z,6.90
2017-06-12T08:40:34.846Z,6.87
2017-06-12T08:43:02.492Z,6.63
2017-06-12T08:45:30.168Z,6.53
2017-06-12T08:47:57.783Z,7.20
2017-06-12T08:50:25.398Z,6.50
2017-06-12T08:52:53.043Z,8.93
2017-06-12T08:55:20.666Z,6.60
2017-06-12T08:57:48.326Z,7.27
2017-06-12T09:00:15.935Z,7.00
2017-06-12T09:02:43.552Z,7.50
2017-06-12T09:05:11.193Z,8.50
2017-06-12T09:07:38.815Z,7.13
2017-06-12T09:10:06.479Z,7.17
2017-06-12T09:12:34.098Z,8.60
2017-06-12T09:15:01.709Z,6.80
2017-06-12T09:17:29.356Z,6.73
2017-06-12T09:19:56.976Z,7.40
2017-06-12T09:22:24.633Z,7.50
2017-06-12T09:24:52.257Z,7.73
2017-06-12T09:27:19.875Z,6.57
2017-06-12T09:29:47.533Z,6.27
2017-06-12T09:32:15.170Z,6.53
2017-06-12T09:34:42.830Z,6.73
2017-06-12T09:37:10.449Z,6.93
2017-06-12T09:39:38.057Z,7.30
2017-06-12T09:42:06.535Z,7.37
2017-06-12T09:44:35.153Z,6.07
2017-06-12T09:47:02.851Z,6.10
2017-06-12T09:49:30.468Z,5.73
2017-06-12T09:51:58.083Z,3.90
2017-06-12T09:54:25.722Z,3.57
2017-06-12T09:56:53.339Z,2.93
2017-06-12T09:59:21.009Z,2.17
2017-06-12T10:01:49.295Z,1.67
2017-06-12T10:04:16.917Z,2.73
2017-06-12T10:06:44.577Z,1.90
2017-06-12T10:09:12.194Z,1.43
2017-06-12T10:11:39.857Z,2.60
2017-06-12T10:14:07.468Z,3.50
2017-06-12T10:16:35.104Z,1.37
2017-06-12T10:19:02.767Z,1.00
2017-06-12T10:21:30.377Z,1.50
2017-06-12T10:23:58.071Z,1.20
2017-06-12T10:26:26.204Z,5.70
2017-06-12T10:28:53.834Z,1.23
2017-06-12T10:31:21.478Z,4.57
2017-06-12T10:33:49.089Z,2.13
2017-06-12T10:36:16.736Z,2.37
2017-06-12T10:38:44.383Z,1.10
2017-06-12T10:41:12.027Z,1.80
2017-06-12T10:43:39.675Z,1.20
2017-06-12T10:46:07.293Z,2.73
2017-06-12T10:48:34.977Z,1.67
2017-06-12T10:51:02.641Z,3.30
2017-06-12T10:53:30.258Z,1.70
2017-06-12T10:55:57.872Z,2.67
2017-06-12T10:58:25.527Z,2.23
2017-06-12T11:00:53.145Z,2.23
2017-06-12T11:03:20.758Z,4.03
2017-06-12T11:05:48.409Z,2.50
2017-06-12T11:08:16.035Z,2.43
2017-06-12T11:10:43.641Z,2.70
2017-06-12T11:13:11.280Z,3.67
2017-06-12T11:15:38.898Z,5.30
2017-06-12T11:18:06.510Z,3.20
2017-06-12T11:20:34.157Z,2.60
2017-06-12T11:23:01.789Z,2.43
2017-06-12T11:25:35.272Z,3.93
2017-06-12T11:28:02.885Z,2.80
2017-06-12T11:30:30.532Z,3.30
2017-06-12T11:32:58.957Z,3.43
2017-06-12T11:35:26.569Z,2.60
2017-06-12T11:37:54.182Z,3.77
2017-06-12T11:40:21.859Z,3.70
2017-06-12T11:42:49.466Z,3.63
2017-06-12T11:45:17.089Z,3.00
2017-06-12T11:47:44.769Z,4.33
2017-06-12T11:50:12.390Z,2.80
2017-06-12T11:52:39.992Z,2.87
2017-06-12T11:55:07.647Z,4.07
2017-06-12T11:57:35.256Z,3.33
2017-06-12T12:00:02.910Z,3.60
2017-06-12T12:02:30.556Z,5.00
2017-06-12T12:04:58.169Z,2.90
2017-06-12T12:07:25.825Z,4.47
2017-06-12T12:09:53.455Z,5.73
2017-06-12T12:12:21.108Z,5.37
2017-06-12T12:14:48.713Z,2.87
2017-06-12T12:17:16.349Z,3.37
2017-06-12T12:19:44.000Z,6.20
2017-06-12T12:22:11.620Z,5.93
2017-06-12T12:24:39.282Z,3.57
2017-06-12T12:27:06.903Z,3.07
2017-06-12T12:29:34.520Z,3.70
2017-06-12T12:32:02.381Z,4.33
2017-06-12T12:34:30.009Z,2.10
2017-06-12T12:36:57.669Z,4.47
2017-06-12T12:39:25.333Z,4.97
2017-06-12T12:41:52.995Z,2.50
2017-06-12T12:44:21.409Z,7.47
2017-06-12T12:46:49.037Z,2.40
2017-06-12T12:49:16.698Z,2.40
2017-06-12T12:51:44.310Z,2.77
2017-06-12T12:54:11.947Z,2.97
2017-06-12T12:56:39.617Z,5.20
2017-06-12T12:59:07.240Z,2.53
2017-06-12T13:01:34.897Z,5.60
2017-06-12T13:04:02.533Z,4.40
2017-06-12T13:06:30.562Z,3.47
2017-06-12T13:08:58.205Z,2.77
2017-06-12T13:11:25.867Z,2.93
2017-06-12T13:13:53.528Z,2.17
2017-06-12T13:16:21.152Z,3.23
2017-06-12T13:18:48.783Z,4.03
2017-06-12T13:21:16.417Z,3.77
2017-06-12T13:23:44.044Z,3.63
2017-06-12T13:26:11.704Z,3.50
2017-06-12T13:28:39.348Z,3.63
2017-06-12T13:31:06.954Z,3.20
2017-06-12T13:33:34.616Z,1.87
2017-06-12T13:36:02.251Z,1.80
2017-06-12T13:38:29.920Z,2.20
2017-06-12T13:40:57.536Z,6.57
2017-06-12T13:43:25.144Z,4.43
2017-06-12T13:45:52.795Z,4.67
2017-06-12T13:48:20.419Z,2.20
2017-06-12T13:50:48.079Z,1.83
2017-06-12T13:53:15.705Z,4.77
2017-06-12T13:55:43.318Z,5.00
2017-06-12T13:58:10.960Z,3.93
2017-06-12T14:00:38.597Z,6.10
2017-06-12T14:03:06.254Z,2.90
2017-06-12T14:05:33.881Z,4.73
2017-06-12T14:08:01.504Z,5.40
2017-06-12T14:10:29.150Z,4.10
2017-06-12T14:12:56.781Z,4.70
2017-06-12T14:15:24.449Z,4.47
2017-06-12T14:17:52.065Z,4.33
2017-06-12T14:20:19.679Z,3.10
2017-06-12T14:22:47.329Z,3.30
2017-06-12T14:25:14.961Z,3.03
2017-06-12T14:27:42.630Z,3.70
2017-06-12T14:30:10.244Z,2.60
2017-06-12T14:32:37.885Z,2.17
2017-06-12T14:35:05.556Z,3.60
2017-06-12T14:37:33.936Z,5.27
2017-06-12T14:40:01.594Z,4.53
2017-06-12T14:42:29.215Z,7.43
2017-06-12T14:44:56.856Z,3.60
2017-06-12T14:47:25.284Z,2.20
2017-06-12T14:49:52.917Z,3.10
2017-06-12T14:52:20.597Z,2.70
2017-06-12T14:54:48.275Z,4.90
2017-06-12T14:57:16.664Z,4.40
2017-06-12T14:59:44.318Z,6.67
2017-06-12T15:02:11.932Z,3.97
2017-06-12T15:04:40.361Z,4.00
2017-06-12T15:07:08.026Z,6.17
2017-06-12T15:09:35.669Z,5.00
2017-06-12T15:12:04.087Z,6.40
2017-06-12T15:14:31.715Z,4.00
2017-06-12T15:16:59.416Z,4.67
2017-06-12T15:19:27.049Z,2.90
2017-06-12T15:21:54.804Z,3.23
2017-06-12T15:24:22.485Z,10.70
2017-06-12T15:26:50.114Z,6.33
2017-06-12T15:29:18.549Z,3.97
2017-06-12T15:31:46.177Z,3.43
2017-06-12T15:34:13.788Z,5.10
2017-06-12T15:36:45.524Z,7.90
2017-06-12T15:39:13.913Z,8.90
2017-06-12T15:41:41.566Z,3.57
2017-06-12T15:44:09.180Z,4.30
2017-06-12T15:46:36.792Z,7.13
2017-06-12T15:49:04.549Z,6.57
2017-06-12T15:51:32.170Z,3.83
2017-06-12T15:53:59.829Z,3.50
2017-06-12T15:56:27.452Z,4.47
2017-06-12T15:58:55.067Z,3.40
2017-06-12T16:01:22.745Z,5.40
2017-06-12T16:03:50.372Z,3.50
2017-06-12T16:06:18.084Z,5.40
2017-06-12T16:08:45.717Z,4.37
2017-06-12T16:11:13.324Z,4.43
2017-06-12T16:13:40.964Z,3.00
2017-06-12T16:16:08.568Z,4.00
2017-06-12T16:18:36.236Z,6.73
2017-06-12T16:21:03.859Z,6.00
2017-06-12T16:23:31.484Z,11.13
2017-06-12T16:25:59.134Z,10.00
2017-06-12T16:28:26.748Z,5.23
2017-06-12T16:30:54.414Z,5.87
2017-06-12T16:33:22.030Z,6.20
2017-06-12T16:35:49.655Z,5.67
2017-06-12T16:38:17.297Z,5.77
2017-06-12T16:40:44.956Z,4.37
2017-06-12T16:43:13.379Z,2.60
2017-06-12T16:45:40.997Z,6.50
2017-06-12T16:48:08.609Z,5.50
2017-06-12T16:50:36.287Z,6.10
2017-06-12T16:53:03.972Z,4.97
2017-06-12T16:55:31.628Z,6.17
2017-06-12T16:57:59.253Z,3.87
2017-06-12T17:00:26.885Z,5.53
2017-06-12T17:02:54.537Z,3.63
2017-06-12T17:05:22.182Z,5.83
2017-06-12T17:07:49.843Z,6.10
2017-06-12T17:10:17.452Z,5.00
2017-06-12T17:12:45.064Z,5.43
2017-06-12T17:15:12.738Z,5.10
2017-06-12T17:17:40.359Z,8.20
2017-06-12T17:20:08.033Z,4.83
2017-06-12T17:22:35.660Z,4.37
2017-06-12T17:25:03.293Z,5.80
2017-06-12T17:27:30.949Z,4.50
2017-06-12T17:29:59.338Z,9.70
2017-06-12T17:32:27.024Z,5.00
2017-06-12T17:34:54.689Z,5.87
2017-06-12T17:37:22.320Z,4.20
2017-06-12T17:39:49.966Z,4.90
2017-06-12T17:42:17.609Z,5.83
2017-06-12T17:44:45.921Z,9.90
2017-06-12T17:47:14.329Z,6.93
2017-06-12T17:49:41.936Z,9.77
2017-06-12T17:52:09.584Z,4.93
2017-06-12T17:54:37.192Z,5.07
2017-06-12T17:57:04.864Z,4.97
2017-06-12T17:59:32.578Z,6.93
2017-06-12T18:02:00.184Z,7.83
2017-06-12T18:04:27.819Z,8.43
2017-06-12T18:06:55.427Z,5.07
2017-06-12T18:09:23.076Z,9.33
2017-06-12T18:11:51.536Z,7.45
2017-06-12T18:14:19.189Z,4.53
2017-06-12T18:16:46.841Z,5.93
2017-06-12T18:19:14.495Z,5.63
2017-06-12T18:21:42.169Z,4.83
2017-06-12T18:24:09.818Z,8.70
2017-06-12T18:26:37.429Z,6.17
2017-06-12T18:29:05.085Z,10.23
2017-06-12T18:31:32.775Z,6.12
2017-06-12T18:34:00.461Z,5.30
2017-06-12T18:36:28.073Z,6.20
2017-06-12T18:38:55.712Z,7.32
2017-06-12T18:41:23.368Z,9.03
2017-06-12T18:43:51.033Z,8.15
2017-06-12T18:46:18.727Z,8.93
2017-06-12T18:48:46.747Z,9.10
2017-06-12T18:51:15.204Z,4.32
2017-06-12T18:53:42.888Z,5.45
2017-06-12T18:56:10.508Z,9.77
2017-06-12T18:58:38.956Z,6.43
2017-06-12T19:01:06.593Z,8.00
2017-06-12T19:03:34.241Z,6.55
2017-06-12T19:06:01.908Z,7.22
2017-06-12T19:08:30.309Z,7.95
2017-06-12T19:10:57.993Z,5.78
2017-06-12T19:13:25.640Z,5.35
2017-06-12T19:15:53.275Z,5.12
2017-06-12T19:18:20.944Z,7.22
2017-06-12T19:20:48.679Z,5.68
2017-06-12T19:23:16.384Z,5.90
2017-06-12T19:25:45.333Z,9.48
2017-06-12T19:28:13.840Z,7.37
2017-06-12T19:30:41.543Z,7.75
2017-06-12T19:33:09.194Z,7.00
2017-06-12T19:35:36.888Z,8.15
2017-06-12T19:38:04.553Z,8.13
2017-06-12T19:40:32.243Z,5.97
2017-06-12T19:42:59.925Z,5.65
2017-06-12T19:45:27.570Z,7.75
2017-06-12T19:47:55.261Z,9.80
2017-06-12T19:50:22.909Z,5.68
2017-06-12T19:52:50.549Z,5.90
2017-06-12T19:55:18.218Z,6.85
2017-06-12T19:57:47.304Z,7.62
2017-06-12T20:00:15.142Z,6.32
2017-06-12T20:02:43.672Z,8.90
2017-06-12T20:05:11.307Z,6.87
2017-06-12T20:07:38.976Z,6.15
2017-06-12T20:10:06.642Z,6.25
2017-06-12T20:12:34.329Z,7.22
2017-06-12T20:15:01.975Z,6.70
2017-06-12T20:17:29.627Z,8.45
2017-06-12T20:19:57.338Z,5.93
2017-06-12T20:22:24.970Z,6.18
2017-06-12T20:24:52.680Z,7.32
2017-06-12T20:27:20.814Z,7.18
2017-06-12T20:29:48.451Z,8.40
2017-06-12T20:32:16.432Z,6.65
2017-06-12T20:34:44.072Z,5.75
2017-06-12T20:37:11.752Z,10.70
2017-06-12T20:39:39.600Z,5.22
2017-06-12T20:42:07.241Z,6.62
2017-06-12T20:44:34.930Z,6.93
2017-06-12T20:47:02.683Z,7.22
2017-06-12T20:49:31.141Z,4.60
2017-06-12T20:52:00.325Z,6.68
2017-06-12T20:54:28.068Z,5.57
2017-06-12T20:56:55.759Z,9.38
2017-06-12T20:59:23.402Z,7.25
2017-06-12T21:01:51.094Z,6.72
2017-06-12T21:04:18.733Z,7.87
2017-06-12T21:06:46.369Z,5.68
2017-06-12T21:09:14.039Z,8.85
2017-06-12T21:11:41.686Z,6.68
2017-06-12T21:14:09.373Z,8.15
2017-06-12T21:16:37.773Z,6.18
2017-06-12T21:19:05.410Z,7.45
2017-06-12T21:21:33.089Z,8.25
2017-06-12T21:24:00.733Z,7.25
2017-06-12T21:26:28.426Z,8.20
2017-06-12T21:28:56.062Z,8.20
2017-06-12T21:31:23.697Z,6.07
2017-06-12T21:33:52.124Z,6.57
2017-06-12T21:36:19.756Z,8.43
2017-06-12T21:38:47.536Z,7.85
2017-06-12T21:41:15.202Z,6.62
2017-06-12T21:43:42.841Z,5.47
2017-06-12T21:46:12.164Z,6.00
2017-06-12T21:48:39.824Z,7.87
2017-06-12T21:51:07.513Z,5.93
2017-06-12T21:53:35.155Z,5.37
2017-06-12T21:56:02.792Z,7.30
2017-06-12T21:58:30.459Z,8.75
2017-06-12T22:00:58.093Z,6.85
2017-06-12T22:03:25.792Z,8.40
2017-06-12T22:05:53.432Z,7.22
2017-06-12T22:08:21.066Z,6.53
2017-06-12T22:10:48.732Z,4.82
2017-06-12T22:13:16.373Z,8.55
2017-06-12T22:15:44.057Z,5.65
2017-06-12T22:18:11.711Z,10.32
2017-06-12T22:20:39.352Z,7.07
2017-06-12T22:23:07.011Z,7.57
2017-06-12T22:25:34.647Z,8.77
2017-06-12T22:28:02.333Z,9.55
2017-06-12T22:30:30.728Z,7.78
2017-06-12T22:32:58.356Z,7.15
2017-06-12T22:35:26.024Z,7.30
2017-06-12T22:37:53.665Z,6.75
2017-06-12T22:40:21.347Z,4.75
2017-06-12T22:42:48.994Z,4.68
2017-06-12T22:45:16.680Z,5.75
2017-06-12T22:47:44.357Z,6.28
2017-06-12T23:10:08.752Z,5.35
2017-06-12T23:12:36.412Z,6.25
2017-06-12T23:15:04.060Z,7.85
2017-06-12T23:17:31.745Z,5.25
2017-06-12T23:19:59.373Z,7.97
2017-06-12T23:22:27.017Z,6.12
2017-06-12T23:24:55.094Z,5.90
2017-06-12T23:27:28.570Z,6.82
2017-06-12T23:29:56.265Z,7.10
2017-06-12T23:32:23.903Z,6.32
2017-06-12T23:34:51.538Z,5.80
2017-06-12T23:37:19.991Z,6.00
2017-06-12T23:39:47.640Z,6.12
2017-06-12T23:42:16.069Z,5.95
2017-06-12T23:44:43.751Z,10.27
2017-06-12T23:47:12.166Z,7.80
2017-06-12T23:49:39.796Z,6.03
2017-06-12T23:52:07.490Z,5.87
2017-06-12T23:54:35.137Z,5.68
2017-06-12T23:57:02.773Z,7.12
2017-06-12T23:59:30.473Z,8.57
